Time;durP1;ratioP1;P1;durP2;ratioP2;P2;SDS_P1;SDS_P2;PMS_P1;PMS_P2;Temp;Humidity;BMP_temperature;BMP_pressure;BME280_temperature;BME280_humidity;BME280_pressure;Samples;Min_cycle;Max_cycle;Signal;HPM_P1;HPM_P2
2023/09/01 00:01:06;;;;;;;12.40;8.30;;;;;;;14.20;100.00;97425.03;110462;1241;68442;-65
2023/09/01 00:04:02;;;;;;;13.50;6.70;;;;;;;14.19;100.00;97423.21;110342;1241;58933;-66
2023/09/01 00:06:34;;;;;;;12.80;8.60;;;;;;;14.19;100.00;97422.48;110483;1241;58858;-66
2023/09/01 00:09:07;;;;;;;11.00;8.40;;;;;;;14.20;100.00;97419.59;110359;1240;69598;-65
2023/09/01 00:11:38;;;;;;;11.80;8.00;;;;;;;14.19;100.00;97420.89;110472;1241;69259;-65
2023/09/01 00:14:11;;;;;;;12.10;8.60;;;;;;;14.17;100.00;97422.14;110443;1241;69293;-65
2023/09/01 00:16:42;;;;;;;11.60;8.90;;;;;;;14.15;100.00;97420.54;110501;1248;59250;-65
2023/09/01 00:19:13;;;;;;;16.60;9.40;;;;;;;14.13;100.00;97420.03;110427;1241;58875;-65
2023/09/01 00:21:44;;;;;;;14.50;10.00;;;;;;;14.10;100.00;97420.10;110462;1241;70451;-65
2023/09/01 00:24:17;;;;;;;11.10;8.10;;;;;;;14.08;100.00;97424.02;110432;1240;68450;-67
2023/09/01 00:26:48;;;;;;;10.70;7.60;;;;;;;14.07;100.00;97431.07;110445;1241;68332;-65
2023/09/01 00:29:20;;;;;;;11.60;9.10;;;;;;;14.08;100.00;97433.12;110482;1241;58892;-65
2023/09/01 00:31:52;;;;;;;15.20;9.90;;;;;;;14.07;100.00;97431.59;110442;1241;58946;-65
2023/09/01 00:34:21;;;;;;;15.80;8.90;;;;;;;14.08;100.00;97432.79;110535;1241;69732;-67
2023/09/01 00:36:52;;;;;;;16.90;10.50;;;;;;;14.08;100.00;97433.48;110334;1244;69289;-67
2023/09/01 00:39:22;;;;;;;;;;;;;;;14.09;100.00;97434.58;110542;1241;69038;-67
2023/09/01 00:41:54;;;;;;;11.90;8.80;;;;;;;14.09;100.00;97428.98;110479;1241;58948;-67
2023/09/01 00:44:25;;;;;;;15.90;9.30;;;;;;;14.09;100.00;97429.33;110444;1241;58917;-67
2023/09/01 00:46:56;;;;;;;12.20;8.40;;;;;;;14.09;100.00;97430.59;110472;1241;69641;-67
2023/09/01 00:49:27;;;;;;;12.20;7.30;;;;;;;14.06;100.00;97430.47;110463;1241;69330;-66
2023/09/01 00:51:58;;;;;;;10.20;6.80;;;;;;;14.06;100.00;97437.15;110484;1241;68498;-65
2023/09/01 00:54:29;;;;;;;9.80;7.20;;;;;;;14.08;100.00;97445.05;110443;1241;58902;-65
2023/09/01 00:57:00;;;;;;;8.90;6.60;;;;;;;14.10;100.00;97444.20;110471;1240;58887;-65
2023/09/01 00:59:37;;;;;;;8.90;5.90;;;;;;;14.07;100.00;97444.05;110492;1241;71084;-65
2023/09/01 01:02:07;;;;;;;7.90;5.90;;;;;;;14.07;100.00;97444.61;110480;1241;69376;-65
2023/09/01 01:04:38;;;;;;;9.50;6.10;;;;;;;14.05;100.00;97443.02;110300;1242;69662;-65
2023/09/01 01:07:23;;;;;;;11.90;7.00;;;;;;;14.03;100.00;97446.49;110522;1241;58883;-66
2023/09/01 01:10:19;;;;;;;11.90;6.60;;;;;;;14.01;100.00;97449.12;110431;1241;58932;-66
2023/09/01 01:13:04;;;;;;;13.30;7.40;;;;;;;13.98;100.00;97452.51;110339;1240;69516;-65
2023/09/01 01:15:37;;;;;;;12.80;7.90;;;;;;;13.96;100.00;97452.67;110370;1239;69100;-65
2023/09/01 01:18:13;;;;;;;17.10;8.50;;;;;;;13.92;100.00;97451.78;110243;1242;69320;-68
2023/09/01 01:20:46;;;;;;;11.40;8.20;;;;;;;13.88;100.00;97454.25;110265;1242;58944;-67
2023/09/01 01:23:17;;;;;;;14.30;8.10;;;;;;;13.84;100.00;97450.11;110312;1242;58840;-66
2023/09/01 01:25:49;;;;;;;12.20;7.40;;;;;;;13.79;100.00;97448.21;110348;1241;70568;-65
2023/09/01 01:28:22;;;;;;;10.80;7.00;;;;;;;13.77;100.00;97448.73;110475;1240;69259;-65
2023/09/01 01:30:53;;;;;;;23.10;7.80;;;;;;;13.74;100.00;97447.94;110452;1241;68376;-65
2023/09/01 01:33:45;;;;;;;11.50;6.70;;;;;;;13.72;100.00;97447.39;110328;1240;58933;-65
2023/09/01 01:36:52;;;;;;;10.30;6.90;;;;;;;13.69;100.00;97445.36;110495;1241;58884;-65
2023/09/01 01:39:27;;;;;;;15.40;6.90;;;;;;;13.66;100.00;97450.19;110255;1241;70188;-65
2023/09/01 01:42:05;;;;;;;12.90;6.40;;;;;;;13.66;100.00;97455.46;110484;1241;69246;-65
2023/09/01 01:44:44;;;;;;;8.60;5.70;;;;;;;13.65;100.00;97458.15;110346;1241;69438;-65
2023/09/01 01:47:16;;;;;;;9.10;6.50;;;;;;;13.65;100.00;97456.40;110478;1241;58948;-65
2023/09/01 01:49:47;;;;;;;9.60;5.90;;;;;;;13.65;100.00;97458.84;110548;1241;58936;-65
2023/09/01 01:52:18;;;;;;;9.30;5.20;;;;;;;13.66;100.00;97460.33;110268;1240;70553;-66
2023/09/01 01:54:49;;;;;;;11.60;5.90;;;;;;;13.67;100.00;97460.93;110433;1242;68049;-65
2023/09/01 01:57:20;;;;;;;8.80;5.70;;;;;;;13.68;100.00;97462.95;110408;1241;68538;-65
2023/09/01 01:59:52;;;;;;;9.20;6.40;;;;;;;13.69;100.00;97460.21;110209;1242;58927;-65
2023/09/01 02:02:23;;;;;;;9.00;6.20;;;;;;;13.71;100.00;97462.19;110267;1241;58874;-65
2023/09/01 02:04:53;;;;;;;9.20;6.00;;;;;;;13.72;100.00;97462.94;110380;1241;71210;-65
2023/09/01 02:07:23;;;;;;;6.80;4.60;;;;;;;13.77;100.00;97464.33;110360;1239;68334;-65
2023/09/01 02:09:55;;;;;;;9.90;7.20;;;;;;;13.80;100.00;97464.61;110260;1243;69165;-65
2023/09/01 02:12:27;;;;;;;11.40;5.80;;;;;;;13.82;100.00;97465.31;110471;1241;58935;-65
2023/09/01 02:14:57;;;;;;;16.00;5.80;;;;;;;13.84;100.00;97457.44;110323;1248;58919;-65
2023/09/01 02:17:27;;;;;;;;;;;;;;;13.87;100.00;97459.84;110246;1243;70020;-65
2023/09/01 02:19:58;;;;;;;8.90;6.00;;;;;;;13.88;100.00;97456.61;110361;1241;69261;-65
2023/09/01 02:22:28;;;;;;;8.50;5.20;;;;;;;13.88;100.00;97456.52;110343;1241;69112;-65
2023/09/01 02:25:00;;;;;;;7.30;4.40;;;;;;;13.90;100.00;97460.06;110317;1241;58861;-65
2023/09/01 02:27:32;;;;;;;7.30;4.60;;;;;;;13.91;100.00;97460.64;110386;1241;58866;-65
2023/09/01 02:30:03;;;;;;;9.00;5.10;;;;;;;13.92;100.00;97459.02;110355;1242;70645;-65
2023/09/01 02:32:32;;;;;;;;;;;;;;;13.94;100.00;97462.89;110431;1239;69400;-66
2023/09/01 02:35:05;;;;;;;7.50;4.80;;;;;;;13.95;100.00;97463.30;110361;1240;69121;-66
2023/09/01 02:37:37;;;;;;;7.80;5.50;;;;;;;13.96;100.00;97467.77;110403;1241;58891;-64
2023/09/01 02:40:12;;;;;;;6.80;4.70;;;;;;;13.97;100.00;97466.30;110432;1241;58868;-66
2023/09/01 02:42:43;;;;;;;12.10;5.60;;;;;;;13.97;100.00;97470.33;110535;1241;69867;-65
2023/09/01 02:45:13;;;;;;;7.90;5.10;;;;;;;13.98;100.00;97469.68;110482;1240;69420;-64
2023/09/01 02:47:45;;;;;;;7.00;4.60;;;;;;;14.00;100.00;97470.73;110548;1239;68324;-64
2023/09/01 02:50:15;;;;;;;8.50;4.80;;;;;;;14.02;100.00;97471.61;110488;1242;58819;-64
2023/09/01 02:52:46;;;;;;;11.40;7.00;;;;;;;14.06;100.00;97478.27;110457;1241;58823;-65
2023/09/01 02:55:18;;;;;;;13.60;7.40;;;;;;;14.09;100.00;97483.83;110294;1240;69850;-65
2023/09/01 02:57:49;;;;;;;10.70;6.70;;;;;;;14.08;100.00;97485.00;110305;1242;68851;-65
2023/09/01 03:00:21;;;;;;;7.60;4.70;;;;;;;14.10;100.00;97491.48;110302;1242;69365;-65
2023/09/01 03:02:53;;;;;;;13.60;6.50;;;;;;;14.11;100.00;97489.48;110515;1242;58931;-66
2023/09/01 03:05:25;;;;;;;6.60;5.10;;;;;;;14.11;100.00;97490.13;110400;1241;58886;-64
2023/09/01 03:07:58;;;;;;;10.10;5.70;;;;;;;14.13;100.00;97489.45;110427;1239;70577;-65
2023/09/01 03:10:30;;;;;;;9.40;5.80;;;;;;;14.14;100.00;97485.51;110273;1242;69053;-64
2023/09/01 03:13:00;;;;;;;8.80;4.90;;;;;;;14.15;100.00;97488.23;110336;1241;68535;-65
2023/09/01 03:15:32;;;;;;;7.30;4.70;;;;;;;14.15;100.00;97486.98;110285;1240;58918;-65
2023/09/01 03:18:03;;;;;;;11.70;6.30;;;;;;;14.16;100.00;97489.91;110461;1241;58905;-65
2023/09/01 03:20:35;;;;;;;10.40;6.50;;;;;;;14.16;100.00;97490.96;110322;1239;70466;-65
2023/09/01 03:23:05;;;;;;;8.80;6.00;;;;;;;14.14;100.00;97493.69;110339;1242;69327;-65
2023/09/01 03:25:39;;;;;;;7.30;5.00;;;;;;;14.16;100.00;97498.07;110321;1240;69309;-65
2023/09/01 03:28:11;;;;;;;7.10;5.60;;;;;;;14.18;100.00;97500.00;110399;1240;58913;-65
2023/09/01 03:30:43;;;;;;;8.50;5.20;;;;;;;14.20;100.00;97500.92;110430;1239;58946;-64
2023/09/01 03:33:13;;;;;;;8.40;5.80;;;;;;;14.22;100.00;97503.35;110265;1242;70473;-64
2023/09/01 03:35:43;;;;;;;8.50;5.80;;;;;;;14.23;100.00;97507.28;110446;1241;69858;-64
2023/09/01 03:38:17;;;;;;;9.60;5.60;;;;;;;14.27;100.00;97510.84;110302;1243;69090;-65
2023/09/01 03:40:47;;;;;;;8.20;4.80;;;;;;;14.29;100.00;97511.41;110273;1242;58987;-65
2023/09/01 03:43:19;;;;;;;7.50;5.70;;;;;;;14.31;100.00;97514.43;110496;1241;58847;-66
2023/09/01 03:45:49;;;;;;;7.40;4.90;;;;;;;14.30;100.00;97509.01;110348;1240;70425;-66
2023/09/01 03:48:20;;;;;;;11.20;6.10;;;;;;;14.30;100.00;97509.73;110297;1241;69237;-67
2023/09/01 03:51:11;;;;;;;7.20;4.80;;;;;;;14.30;100.00;97512.85;110383;1241;69087;-65
2023/09/01 03:53:42;;;;;;;7.50;5.50;;;;;;;14.30;100.00;97510.92;110505;1240;58855;-66
2023/09/01 03:56:14;;;;;;;9.70;6.30;;;;;;;14.31;100.00;97515.98;110354;1240;58901;-65
2023/09/01 03:58:44;;;;;;;10.20;6.40;;;;;;;14.31;100.00;97512.43;110267;1242;69735;-65
2023/09/01 04:01:15;;;;;;;7.90;5.50;;;;;;;14.33;100.00;97514.91;110382;1241;69341;-66
2023/09/01 04:03:47;;;;;;;7.20;5.20;;;;;;;14.37;100.00;97518.41;110388;1242;69424;-66
2023/09/01 04:06:18;;;;;;;6.60;5.20;;;;;;;14.43;100.00;97524.92;110235;1241;58896;-65
2023/09/01 04:08:49;;;;;;;9.10;5.90;;;;;;;14.46;100.00;97527.77;110171;1242;58988;-66
2023/09/01 04:11:19;;;;;;;9.70;6.40;;;;;;;14.49;100.00;97533.12;110320;1240;71042;-65
2023/09/01 04:13:48;;;;;;;;;;;;;;;14.52;100.00;97531.33;110294;1245;69227;-65
2023/09/01 04:16:19;;;;;;;7.40;5.70;;;;;;;14.54;100.00;97533.83;110202;1241;68531;-65
2023/09/01 04:18:49;;;;;;;8.10;5.80;;;;;;;14.56;100.00;97532.39;110570;1240;58837;-67
2023/09/01 04:21:19;;;;;;;11.00;6.50;;;;;;;14.57;100.00;97533.02;110383;1239;58963;-66
2023/09/01 04:23:49;;;;;;;8.30;6.40;;;;;;;14.58;100.00;97534.30;110370;1242;70066;-66
2023/09/01 04:26:19;;;;;;;7.80;5.50;;;;;;;14.59;100.00;97534.64;110450;1243;69208;-66
2023/09/01 04:28:49;;;;;;;8.20;5.70;;;;;;;14.61;100.00;97534.27;110457;1241;69307;-66
2023/09/01 04:31:29;;;;;;;13.70;8.90;;;;;;;14.63;100.00;97537.89;110340;1240;58966;-65
2023/09/01 04:34:03;;;;;;;10.10;6.80;;;;;;;14.66;100.00;97541.34;110502;1241;58875;-65
2023/09/01 04:36:34;;;;;;;9.90;6.50;;;;;;;14.67;100.00;97541.10;110259;1241;70310;-67
2023/09/01 04:39:17;;;;;;;10.00;7.50;;;;;;;14.67;100.00;97547.21;110434;1240;68577;-66
2023/09/01 04:41:47;;;;;;;11.10;8.10;;;;;;;14.68;100.00;97549.02;110262;1239;68295;-66
2023/09/01 04:44:17;;;;;;;9.30;6.80;;;;;;;14.70;100.00;97551.85;110445;1240;58893;-66
2023/09/01 04:46:47;;;;;;;8.10;6.30;;;;;;;14.72;100.00;97551.16;110499;1241;58864;-66
2023/09/01 04:49:17;;;;;;;8.70;6.30;;;;;;;14.74;100.00;97552.52;110488;1240;70384;-66
2023/09/01 04:51:47;;;;;;;9.60;6.60;;;;;;;14.80;100.00;97554.87;110512;1242;68447;-66
2023/09/01 04:54:16;;;;;;;7.40;5.80;;;;;;;14.84;100.00;97551.46;110386;1241;69573;-66
2023/09/01 04:56:47;;;;;;;7.70;5.00;;;;;;;14.90;100.00;97555.23;110360;1241;58934;-64
2023/09/01 04:59:16;;;;;;;7.90;5.50;;;;;;;14.95;100.00;97552.83;110323;1242;58914;-67
2023/09/01 05:01:46;;;;;;;9.50;6.10;;;;;;;15.00;100.00;97558.30;110274;1241;70608;-65
2023/09/01 05:04:15;;;;;;;8.00;6.00;;;;;;;15.04;100.00;97556.44;110396;1241;68678;-65
2023/09/01 05:06:45;;;;;;;7.20;5.40;;;;;;;15.09;100.00;97557.06;110277;1242;68497;-65
2023/09/01 05:09:15;;;;;;;7.70;5.80;;;;;;;15.15;100.00;97562.48;110462;1239;58874;-66
2023/09/01 05:11:45;;;;;;;8.10;6.00;;;;;;;15.20;100.00;97564.65;110469;1241;58897;-65
2023/09/01 05:14:14;;;;;;;7.50;5.90;;;;;;;15.27;100.00;97560.52;110526;1241;69767;-66
2023/09/01 05:16:43;;;;;;;8.10;6.00;;;;;;;15.37;100.00;97563.00;110508;1241;69486;-66
2023/09/01 05:19:13;;;;;;;7.20;5.50;;;;;;;15.47;100.00;97563.81;110508;1240;69830;-66
2023/09/01 05:21:43;;;;;;;7.10;5.30;;;;;;;15.57;100.00;97561.30;110296;1242;58900;-66
2023/09/01 05:24:12;;;;;;;7.30;5.60;;;;;;;15.65;100.00;97560.05;110444;1240;58938;-66
2023/09/01 05:26:42;;;;;;;6.70;5.10;;;;;;;15.73;100.00;97562.29;110320;1241;71166;-65
2023/09/01 05:29:11;;;;;;;7.50;5.40;;;;;;;15.81;100.00;97568.84;110563;1243;69162;-66
2023/09/01 05:31:40;;;;;;;8.10;6.00;;;;;;;15.86;100.00;97572.23;110219;1240;68915;-65
2023/09/01 05:34:10;;;;;;;7.40;5.40;;;;;;;15.90;100.00;97573.61;110377;1241;58935;-65
2023/09/01 05:36:40;;;;;;;8.40;6.10;;;;;;;15.97;100.00;97574.68;110334;1240;58941;-66
2023/09/01 05:39:10;;;;;;;9.00;6.80;;;;;;;16.07;100.00;97575.52;110573;1241;69652;-66
2023/09/01 05:41:39;;;;;;;6.40;5.10;;;;;;;16.17;100.00;97571.98;110447;1241;69816;-68
2023/09/01 05:44:09;;;;;;;6.20;5.20;;;;;;;16.24;100.00;97574.98;110361;1241;68742;-67
2023/09/01 05:46:38;;;;;;;5.80;4.90;;;;;;;16.35;100.00;97577.73;110374;1241;58929;-66
2023/09/01 05:49:09;;;;;;;6.90;5.10;;;;;;;16.45;100.00;97574.51;110457;1241;58943;-66
2023/09/01 05:51:38;;;;;;;8.10;5.70;;;;;;;16.50;100.00;97575.71;110424;1241;70493;-67
2023/09/01 05:54:08;;;;;;;8.30;6.20;;;;;;;16.59;100.00;97579.16;110347;1239;69494;-67
2023/09/01 05:56:37;;;;;;;6.60;5.20;;;;;;;16.61;100.00;97578.13;110494;1241;69855;-66
2023/09/01 05:59:06;;;;;;;5.50;4.60;;;;;;;16.62;100.00;97581.84;110333;1241;58915;-67
2023/09/01 06:01:36;;;;;;;5.70;4.70;;;;;;;16.70;100.00;97586.92;110412;1241;58937;-67
2023/09/01 06:04:06;;;;;;;4.60;3.90;;;;;;;16.85;100.00;97590.21;110474;1241;70020;-66
2023/09/01 06:06:35;;;;;;;5.20;3.50;;;;;;;16.98;100.00;97592.54;110396;1240;68489;-67
2023/09/01 06:09:05;;;;;;;5.80;4.60;;;;;;;17.06;100.00;97595.30;110502;1241;68780;-67
2023/09/01 06:11:39;;;;;;;5.10;4.20;;;;;;;17.14;100.00;97592.02;110483;1241;59313;-68
2023/09/01 06:14:08;;;;;;;5.90;5.10;;;;;;;17.10;100.00;97597.34;110508;1241;58866;-68
2023/09/01 06:16:38;;;;;;;6.40;5.10;;;;;;;17.10;100.00;97598.92;110491;1241;70569;-67
2023/09/01 06:19:07;;;;;;;5.20;4.70;;;;;;;17.07;100.00;97602.95;110336;1241;69838;-68
2023/09/01 06:21:36;;;;;;;6.50;5.30;;;;;;;17.11;100.00;97599.33;110375;1241;69272;-67
2023/09/01 06:24:05;;;;;;;6.50;5.10;;;;;;;17.24;100.00;97599.16;110330;1241;58941;-68
2023/09/01 06:26:34;;;;;;;9.10;7.30;;;;;;;17.33;100.00;97600.69;110425;1241;59022;-67
2023/09/01 06:29:04;;;;;;;6.50;5.60;;;;;;;17.24;100.00;97604.22;110431;1241;70888;-67
2023/09/01 06:31:33;;;;;;;7.20;5.30;;;;;;;17.24;100.00;97604.98;110428;1241;69397;-67
2023/09/01 06:34:03;;;;;;;6.60;5.70;;;;;;;17.47;100.00;97608.17;110479;1241;68744;-68
2023/09/01 06:36:32;;;;;;;7.30;6.60;;;;;;;17.71;100.00;97605.48;110315;1240;58957;-66
2023/09/01 06:39:03;;;;;;;7.80;6.10;;;;;;;17.93;100.00;97605.96;110312;1242;58825;-68
2023/09/01 06:41:33;;;;;;;5.80;5.20;;;;;;;17.95;100.00;97606.64;110498;1240;70851;-68
2023/09/01 06:54:43;;;;;;;10.10;6.40;;;;;;;19.31;100.00;97625.61;107301;1269;609810;-67
2023/09/01 06:57:12;;;;;;;6.30;4.60;;;;;;;19.74;100.00;97634.64;108788;1254;385205;-67
2023/09/01 06:59:42;;;;;;;5.10;4.60;;;;;;;19.77;100.00;97634.52;109350;1254;57651;-67
2023/09/01 07:02:11;;;;;;;4.80;4.20;;;;;;;19.81;99.90;97630.30;109256;1253;70394;-66
2023/09/01 07:04:40;;;;;;;4.90;4.40;;;;;;;19.95;99.86;97625.12;109271;1253;69784;-66
2023/09/01 07:07:10;;;;;;;3.70;3.30;;;;;;;20.14;100.00;97628.16;109259;1253;68593;-66
2023/09/01 07:09:39;;;;;;;4.40;3.90;;;;;;;20.36;99.20;97628.11;109311;1252;57725;-66
2023/09/01 07:12:08;;;;;;;4.60;4.10;;;;;;;20.44;96.96;97626.71;109361;1253;57719;-66
2023/09/01 07:14:37;;;;;;;5.30;4.70;;;;;;;20.48;97.68;97628.06;109307;1254;68874;-66
2023/09/01 07:17:07;;;;;;;5.40;4.50;;;;;;;20.30;96.88;97630.15;109753;1246;69791;-66
2023/09/01 07:19:36;;;;;;;5.70;5.10;;;;;;;20.52;97.10;97631.65;109691;1244;68551;-66
2023/09/01 07:22:05;;;;;;;5.20;4.60;;;;;;;21.08;93.56;97636.91;109748;1247;58110;-64
2023/09/01 07:24:35;;;;;;;5.10;4.20;;;;;;;21.35;90.89;97640.79;109678;1246;58060;-65
2023/09/01 07:27:06;;;;;;;4.90;4.40;;;;;;;21.59;87.87;97641.82;110194;1241;70364;-67
2023/09/01 07:29:35;;;;;;;5.40;4.90;;;;;;;21.55;82.57;97643.48;110172;1242;69813;-65
2023/09/01 07:32:04;;;;;;;;;;;;;;;21.65;83.43;97647.05;110178;1244;69687;-66
2023/09/01 07:34:34;;;;;;;26.80;20.20;;;;;;;21.60;84.46;97647.73;110173;1243;58118;-66
2023/09/01 07:37:05;;;;;;;12.40;9.00;;;;;;;21.69;85.97;97650.27;110173;1241;58126;-66
2023/09/01 07:52:23;;;;;;;4.90;3.70;;;;;;;24.82;71.82;97665.31;107386;1270;609866;-63
2023/09/01 07:54:52;;;;;;;4.50;4.10;;;;;;;25.56;66.89;97671.77;108961;1257;293245;-66
2023/09/01 07:57:22;;;;;;;4.50;4.10;;;;;;;25.79;64.72;97670.02;109313;1254;57705;-66
2023/09/01 07:59:51;;;;;;;4.90;4.40;;;;;;;25.98;64.11;97675.23;109250;1251;69342;-65
2023/09/01 08:02:20;;;;;;;5.00;4.30;;;;;;;26.00;63.03;97672.88;109327;1251;68302;-66
2023/09/01 08:04:49;;;;;;;5.30;4.80;;;;;;;26.20;64.56;97674.40;109274;1251;69262;-66
2023/09/01 08:07:19;;;;;;;4.60;4.20;;;;;;;26.51;61.60;97676.59;109544;1251;57712;-66
2023/09/01 08:09:48;;;;;;;4.10;3.70;;;;;;;26.64;59.38;97678.27;109627;1247;57696;-67
2023/09/01 08:12:18;;;;;;;4.80;3.80;;;;;;;27.03;60.03;97676.26;109532;1247;68901;-66
2023/09/01 08:14:47;;;;;;;4.00;3.60;;;;;;;27.27;56.28;97679.05;109548;1251;69680;-66
2023/09/01 08:17:17;;;;;;;4.20;3.60;;;;;;;27.16;55.41;97678.91;109583;1249;69847;-66
2023/09/01 08:19:47;;;;;;;5.30;4.80;;;;;;;27.10;55.41;97675.05;109500;1250;58068;-65
2023/09/01 08:22:17;;;;;;;4.90;4.20;;;;;;;27.17;55.22;97671.27;109610;1250;58092;-66
2023/09/01 08:24:45;;;;;;;6.70;6.00;;;;;;;26.93;54.94;97673.25;109712;1247;69778;-66
2023/09/01 08:27:15;;;;;;;5.70;5.20;;;;;;;27.18;56.02;97669.71;109574;1247;69192;-67
2023/09/01 08:29:45;;;;;;;4.20;3.80;;;;;;;26.96;55.18;97669.98;109620;1247;68791;-65
2023/09/01 08:32:16;;;;;;;5.10;4.40;;;;;;;26.41;55.54;97668.36;109610;1246;58062;-65
2023/09/01 08:34:47;;;;;;;3.70;3.30;;;;;;;26.83;55.73;97670.05;109674;1248;58111;-66
2023/09/01 08:37:16;;;;;;;3.60;3.30;;;;;;;27.24;54.73;97666.58;109694;1248;70166;-66
2023/09/01 08:39:46;;;;;;;4.50;3.50;;;;;;;27.78;51.89;97669.11;109657;1246;69264;-66
2023/09/01 08:42:18;;;;;;;4.20;3.80;;;;;;;28.17;51.18;97670.42;109583;1247;70083;-66
2023/09/01 08:44:49;;;;;;;3.70;3.40;;;;;;;28.19;51.75;97672.81;109602;1247;58143;-66
2023/09/01 08:47:22;;;;;;;4.40;3.90;;;;;;;28.45;51.30;97672.98;109625;1247;58286;-67
2023/09/01 08:49:52;;;;;;;3.60;3.30;;;;;;;28.46;50.13;97666.33;109596;1248;69788;-64
2023/09/01 08:52:23;;;;;;;4.70;4.20;;;;;;;28.45;47.78;97666.48;109598;1248;69256;-65
2023/09/01 08:54:53;;;;;;;4.90;4.40;;;;;;;28.82;48.82;97663.31;109609;1249;69402;-64
2023/09/01 08:57:24;;;;;;;3.80;3.40;;;;;;;28.82;50.12;97664.79;109572;1248;58154;-65
2023/09/01 08:59:57;;;;;;;4.10;3.50;;;;;;;28.73;50.65;97666.69;109695;1248;58176;-66
2023/09/01 09:02:26;;;;;;;3.90;3.40;;;;;;;28.65;48.00;97668.54;109661;1249;70274;-65
2023/09/01 09:04:56;;;;;;;4.50;3.50;;;;;;;28.85;46.50;97665.23;109604;1249;68775;-66
2023/09/01 09:07:25;;;;;;;3.40;2.50;;;;;;;29.05;45.89;97664.45;109615;1248;67441;-67
2023/09/01 09:09:59;;;;;;;2.60;2.40;;;;;;;29.50;46.49;97660.23;109624;1248;58058;-65
2023/09/01 09:12:41;;;;;;;2.80;2.40;;;;;;;29.62;43.76;97660.69;109604;1251;58155;-65
2023/09/01 09:15:17;;;;;;;3.30;2.90;;;;;;;29.04;44.55;97664.92;109664;1249;69542;-65
2023/09/01 09:17:48;;;;;;;3.20;2.30;;;;;;;29.63;45.95;97665.52;109496;1248;69870;-65
2023/09/01 09:20:18;;;;;;;2.90;2.50;;;;;;;29.46;46.07;97666.81;110190;1244;69175;-65
2023/09/01 09:22:59;;;;;;;3.60;2.70;;;;;;;28.93;44.52;97665.27;110228;1242;58064;-65
2023/09/01 09:25:31;;;;;;;4.40;3.40;;;;;;;28.60;44.41;97662.49;110224;1241;58205;-64
2023/09/01 09:28:12;;;;;;;2.70;2.50;;;;;;;28.78;44.92;97663.34;110200;1241;69802;-66
2023/09/01 09:30:49;;;;;;;3.80;2.80;;;;;;;28.94;44.15;97666.01;110225;1242;69809;-65
2023/09/01 09:33:29;;;;;;;2.90;2.30;;;;;;;29.57;44.18;97666.65;110232;1241;69246;-65
2023/09/01 09:35:59;;;;;;;3.90;3.00;;;;;;;30.08;43.55;97668.63;110178;1241;58378;-66
2023/09/01 09:38:46;;;;;;;4.20;3.00;;;;;;;29.53;43.52;97664.70;110235;1242;58050;-64
2023/09/01 09:41:15;;;;;;;3.40;2.90;;;;;;;29.27;44.37;97667.44;110274;1241;70345;-66
2023/09/01 09:43:46;;;;;;;2.90;2.60;;;;;;;29.47;43.07;97662.41;110222;1242;69214;-65
2023/09/01 09:46:17;;;;;;;2.90;2.50;;;;;;;29.77;42.98;97662.89;110226;1242;68701;-65
2023/09/01 09:48:46;;;;;;;2.30;2.00;;;;;;;30.47;43.16;97660.34;110222;1242;58109;-66
2023/09/01 09:51:18;;;;;;;3.70;3.10;;;;;;;30.63;40.71;97666.08;110156;1244;58053;-66
2023/09/01 09:53:50;;;;;;;3.30;2.70;;;;;;;30.42;42.09;97661.69;110256;1245;69040;-66
2023/09/01 09:56:19;;;;;;;3.00;2.70;;;;;;;30.57;40.76;97662.73;110242;1242;69265;-66
2023/09/01 09:58:51;;;;;;;2.30;2.10;;;;;;;30.71;40.69;97657.91;110190;1241;69048;-65
2023/09/01 10:01:22;;;;;;;3.30;2.50;;;;;;;29.17;38.64;97660.54;110226;1242;58195;-66
2023/09/01 10:03:54;;;;;;;3.10;2.30;;;;;;;29.35;40.13;97656.95;110232;1242;58064;-66
2023/09/01 10:06:24;;;;;;;2.30;2.10;;;;;;;29.80;39.50;97662.20;110250;1242;68800;-66
2023/09/01 10:08:54;;;;;;;3.00;2.30;;;;;;;30.03;39.91;97659.37;110224;1242;69232;-65
2023/09/01 10:11:24;;;;;;;3.10;2.40;;;;;;;30.61;38.95;97664.46;110219;1241;69819;-65
2023/09/01 10:13:53;;;;;;;2.30;2.10;;;;;;;30.93;37.48;97661.62;110205;1242;58073;-66
2023/09/01 10:16:23;;;;;;;3.60;2.20;;;;;;;30.95;37.45;97658.65;110216;1241;58083;-66
2023/09/01 10:18:53;;;;;;;2.50;2.00;;;;;;;31.08;38.54;97657.77;110225;1241;69726;-65
2023/09/01 10:21:22;;;;;;;2.80;1.90;;;;;;;31.40;36.39;97658.79;110220;1241;69559;-65
2023/09/01 10:23:51;;;;;;;2.00;1.70;;;;;;;32.40;36.84;97662.81;110208;1241;69428;-67
2023/09/01 10:26:25;;;;;;;2.10;1.90;;;;;;;31.71;33.83;97656.91;110216;1242;58082;-66
2023/09/01 10:29:03;;;;;;;2.70;1.80;;;;;;;32.51;35.38;97659.09;110195;1241;58094;-66
2023/09/01 10:31:36;;;;;;;2.60;2.30;;;;;;;31.86;33.64;97655.73;110190;1241;70550;-65
2023/09/01 10:34:14;;;;;;;2.90;2.10;;;;;;;31.02;34.78;97648.70;110240;1241;69220;-65
2023/09/01 10:36:45;;;;;;;3.00;2.40;;;;;;;31.46;33.58;97645.88;110396;1241;69240;-66
2023/09/01 10:39:23;;;;;;;2.60;1.90;;;;;;;29.50;36.37;97644.77;110382;1241;58124;-66
2023/09/01 10:41:58;;;;;;;3.00;1.90;;;;;;;30.92;36.36;97644.22;110424;1242;58085;-66
2023/09/01 10:44:40;;;;;;;2.10;1.90;;;;;;;31.51;35.51;97642.95;110323;1241;70990;-66
2023/09/01 10:47:31;;;;;;;2.50;1.90;;;;;;;31.84;32.81;97643.47;110461;1241;69870;-65
2023/09/01 10:50:06;;;;;;;1.50;1.40;;;;;;;31.44;32.10;97648.02;110370;1240;69287;-65
2023/09/01 10:52:36;;;;;;;1.70;1.30;;;;;;;31.87;32.20;97652.40;110395;1241;58057;-65
2023/09/01 10:55:06;;;;;;;2.20;1.60;;;;;;;32.72;32.60;97649.38;110379;1240;58060;-66
2023/09/01 10:57:41;;;;;;;2.30;1.90;;;;;;;33.16;31.45;97650.58;110317;1241;70393;-65
2023/09/01 11:00:26;;;;;;;2.50;1.40;;;;;;;33.42;32.06;97643.61;110205;1244;68876;-66
2023/09/01 11:03:30;;;;;;;2.20;1.50;;;;;;;33.50;31.12;97641.58;110387;1241;68543;-66
2023/09/01 11:06:01;;;;;;;2.10;1.80;;;;;;;33.03;30.12;97639.10;110413;1241;58069;-67
2023/09/01 11:08:31;;;;;;;2.70;2.40;;;;;;;32.39;30.62;97646.78;110394;1241;58078;-66
2023/09/01 11:11:08;;;;;;;2.90;1.60;;;;;;;31.63;32.01;97649.44;110315;1240;69761;-66
2023/09/01 11:13:38;;;;;;;2.10;1.50;;;;;;;31.42;31.92;97645.55;110292;1242;69350;-65
2023/09/01 11:16:11;;;;;;;2.10;1.50;;;;;;;31.30;31.74;97639.22;110221;1243;69361;-66
2023/09/01 11:18:40;;;;;;;1.60;1.30;;;;;;;32.14;30.05;97642.69;110234;1245;58220;-66
2023/09/01 11:21:09;;;;;;;2.20;1.40;;;;;;;33.07;29.87;97640.43;110452;1241;58062;-66
2023/09/01 11:23:39;;;;;;;2.20;1.30;;;;;;;33.75;28.96;97643.13;110406;1242;70325;-66
2023/09/01 11:26:10;;;;;;;2.90;1.20;;;;;;;33.93;27.70;97645.70;110362;1241;69203;-65
2023/09/01 11:28:39;;;;;;;1.30;1.20;;;;;;;34.61;27.95;97645.98;110332;1241;68979;-66
2023/09/01 11:31:08;;;;;;;2.10;1.40;;;;;;;34.36;27.50;97644.01;110386;1241;58094;-66
2023/09/01 11:33:38;;;;;;;1.40;1.30;;;;;;;34.80;27.89;97643.98;110413;1241;58059;-66
2023/09/01 11:36:10;;;;;;;1.40;1.20;;;;;;;33.25;26.82;97637.64;110378;1239;69816;-66
2023/09/01 11:38:43;;;;;;;1.40;1.10;;;;;;;33.29;27.49;97637.90;110385;1241;69206;-67
2023/09/01 11:41:19;;;;;;;1.70;1.20;;;;;;;33.89;27.17;97639.77;110337;1241;69861;-67
2023/09/01 11:43:50;;;;;;;1.70;1.20;;;;;;;33.89;26.39;97638.35;110377;1242;58160;-66
2023/09/01 11:46:31;;;;;;;1.70;1.40;;;;;;;34.27;27.04;97640.46;110310;1241;58075;-66
2023/09/01 11:49:02;;;;;;;1.60;1.00;;;;;;;34.23;26.18;97638.89;110459;1240;69790;-66
2023/09/01 11:51:36;;;;;;;2.00;1.30;;;;;;;33.61;25.23;97637.96;110389;1240;69829;-65
2023/09/01 11:54:06;;;;;;;2.60;1.50;;;;;;;33.46;25.34;97638.21;110328;1241;69924;-66
2023/09/01 11:56:35;;;;;;;1.50;1.30;;;;;;;32.94;25.68;97636.11;110339;1241;58126;-66
2023/09/01 11:59:04;;;;;;;1.80;1.40;;;;;;;33.04;27.25;97636.81;110342;1241;58140;-66
2023/09/01 12:01:41;;;;;;;1.80;1.50;;;;;;;33.72;27.51;97635.98;110394;1241;70359;-66
2023/09/01 12:04:11;;;;;;;1.70;1.40;;;;;;;33.78;27.11;97634.38;110360;1241;69210;-66